Time;durP1;ratioP1;P1;durP2;ratioP2;P2;SDS_P1;SDS_P2;PMS_P1;PMS_P2;Temp;Humidity;BMP_temperature;BMP_pressure;BME280_temperature;BME280_humidity;BME280_pressure;Samples;Min_cycle;Max_cycle;Signal;HPM_P1;HPM_P2
2020/12/16 00:02:19;;;;;;;30.13;17.27;;;;;;;5.55;100.00;96432.66;5073690;28;20211;-69
2020/12/16 00:04:46;;;;;;;28.03;15.63;;;;;;;5.50;100.00;96437.75;5073413;28;20188;-69
2020/12/16 00:07:13;;;;;;;34.27;17.03;;;;;;;5.49;100.00;96433.59;5073325;28;20227;-69
2020/12/16 00:09:40;;;;;;;30.60;17.33;;;;;;;5.41;100.00;96434.00;5073406;28;20196;-70
2020/12/16 00:12:07;;;;;;;28.47;16.20;;;;;;;5.39;100.00;96435.25;5073328;28;20199;-68
2020/12/16 00:14:34;;;;;;;31.63;17.60;;;;;;;5.41;100.00;96434.00;5073215;28;20741;-67
2020/12/16 00:17:01;;;;;;;33.23;17.57;;;;;;;5.44;100.00;96432.75;5073322;28;20573;-69
2020/12/16 00:19:28;;;;;;;31.57;17.93;;;;;;;5.46;100.00;96433.31;5073531;28;20705;-69
2020/12/16 00:21:58;;;;;;;35.27;18.43;;;;;;;5.44;100.00;96436.09;5073298;28;20205;-69
2020/12/16 00:24:25;;;;;;;33.07;18.23;;;;;;;5.53;100.00;96436.47;5073185;28;20229;-67
2020/12/16 00:26:52;;;;;;;34.83;18.07;;;;;;;5.47;100.00;96433.06;5072864;28;20239;-69
2020/12/16 00:29:19;;;;;;;31.87;18.17;;;;;;;5.44;100.00;96432.75;5073255;28;20192;-69
2020/12/16 00:31:46;;;;;;;33.77;18.43;;;;;;;5.44;100.00;96432.75;5072874;28;20205;-69
2020/12/16 00:34:13;;;;;;;34.27;19.53;;;;;;;5.41;100.00;96438.38;5072863;28;20282;-69
2020/12/16 00:36:41;;;;;;;32.27;19.97;;;;;;;5.43;100.00;96429.38;5073013;28;20200;-69
2020/12/16 00:39:09;;;;;;;36.43;20.53;;;;;;;5.51;100.00;96433.38;5072713;28;20200;-68
2020/12/16 00:41:36;;;;;;;40.40;21.13;;;;;;;5.57;100.00;96433.22;5072638;28;20243;-70
2020/12/16 00:44:04;;;;;;;37.33;21.23;;;;;;;5.50;100.00;96431.81;5072859;28;20229;-70
2020/12/16 00:46:32;;;;;;;38.93;22.53;;;;;;;5.50;100.00;96426.66;5072728;28;20236;-68
2020/12/16 00:48:59;;;;;;;37.53;21.33;;;;;;;5.45;100.00;96429.16;5072479;28;20200;-68
2020/12/16 00:51:26;;;;;;;41.83;21.50;;;;;;;5.49;100.00;96428.44;5072255;28;20203;-69
2020/12/16 00:53:53;;;;;;;35.83;20.33;;;;;;;5.52;100.00;96425.41;5072704;28;20250;-68
2020/12/16 00:56:20;;;;;;;39.67;21.47;;;;;;;5.47;100.00;96421.97;5072536;28;20675;-69
2020/12/16 00:58:47;;;;;;;36.60;21.50;;;;;;;5.46;100.00;96415.25;5072755;28;20201;-69
2020/12/16 01:01:14;;;;;;;39.17;22.70;;;;;;;5.46;100.00;96417.84;5072608;28;20656;-69
2020/12/16 01:03:41;;;;;;;45.57;25.23;;;;;;;5.48;100.00;96426.88;5072581;28;20192;-69
2020/12/16 01:06:07;;;;;;;42.77;24.53;;;;;;;5.47;100.00;96421.97;5072345;28;20228;-66
2020/12/16 01:08:35;;;;;;;44.70;25.00;;;;;;;5.50;100.00;96421.50;5072286;28;20258;-69
2020/12/16 01:11:02;;;;;;;49.60;26.57;;;;;;;5.51;100.00;96420.47;5072449;28;20246;-68
2020/12/16 01:13:29;;;;;;;48.50;25.90;;;;;;;5.49;100.00;96414.78;5072643;28;20299;-68
2020/12/16 01:15:56;;;;;;;44.83;24.67;;;;;;;5.52;100.00;96419.47;5072513;28;20244;-69
2020/12/16 01:18:22;;;;;;;46.03;25.43;;;;;;;5.40;100.00;96416.19;5072036;28;20589;-69
2020/12/16 01:20:49;;;;;;;45.57;25.60;;;;;;;5.42;100.00;96416.75;5072176;28;20201;-69
2020/12/16 01:23:16;;;;;;;51.30;27.47;;;;;;;5.35;100.00;96416.13;5071919;28;20206;-69
2020/12/16 01:25:44;;;;;;;46.37;24.67;;;;;;;5.38;100.00;96413.09;5072114;28;20228;-68
2020/12/16 01:28:11;;;;;;;45.70;25.47;;;;;;;5.33;100.00;96415.59;5071884;28;20189;-69
2020/12/16 01:30:38;;;;;;;45.90;25.00;;;;;;;5.29;100.00;96414.50;5071814;28;20257;-69
2020/12/16 01:33:05;;;;;;;58.47;30.73;;;;;;;5.34;100.00;96407.63;5071713;28;20219;-69
2020/12/16 01:35:31;;;;;;;61.93;30.67;;;;;;;5.42;100.00;96411.59;5071756;28;20201;-68
2020/12/16 01:37:58;;;;;;;57.73;29.50;;;;;;;5.40;100.00;96416.97;5071593;28;20202;-69
2020/12/16 01:40:25;;;;;;;48.60;27.40;;;;;;;5.41;100.00;96410.81;5071282;28;20235;-67
2020/12/16 01:42:53;;;;;;;48.93;27.23;;;;;;;5.42;100.00;96409.03;5071674;28;20718;-67
2020/12/16 01:45:22;;;;;;;49.00;27.30;;;;;;;5.41;100.00;96410.03;5071589;28;20626;-68
2020/12/16 01:47:49;;;;;;;44.97;25.03;;;;;;;5.42;100.00;96409.03;5071601;28;20212;-69
2020/12/16 01:50:17;;;;;;;46.37;25.70;;;;;;;5.43;100.00;96408.00;5071474;28;20284;-70
2020/12/16 01:52:44;;;;;;;53.23;29.03;;;;;;;5.45;100.00;96413.69;5071669;28;20197;-69
2020/12/16 01:55:12;;;;;;;51.03;27.37;;;;;;;5.36;100.00;96412.53;5071412;28;20192;-69
2020/12/16 01:57:41;;;;;;;45.50;24.17;;;;;;;5.32;100.00;96404.50;5071447;28;20688;-69
2020/12/16 02:00:10;;;;;;;45.17;26.37;;;;;;;5.36;100.00;96408.16;5071243;28;20279;-69
2020/12/16 02:02:41;;;;;;;44.73;24.63;;;;;;;5.31;100.00;96402.94;5070425;28;20594;-70
2020/12/16 02:05:10;;;;;;;50.20;27.23;;;;;;;5.27;100.00;96401.88;5071558;28;20197;-69
2020/12/16 02:07:38;;;;;;;45.60;26.00;;;;;;;5.33;100.00;96406.06;5071146;28;20205;-70
2020/12/16 02:10:04;;;;;;;49.63;26.47;;;;;;;5.31;100.00;96410.69;5071097;28;20629;-69
2020/12/16 02:12:35;;;;;;;51.10;26.70;;;;;;;5.27;100.00;96407.03;5071116;28;20659;-68
2020/12/16 02:15:04;;;;;;;45.93;25.87;;;;;;;5.29;100.00;96410.13;5071009;28;20199;-69
2020/12/16 02:17:32;;;;;;;49.73;27.33;;;;;;;5.22;100.00;96411.31;5070923;28;20227;-67
2020/12/16 02:20:01;;;;;;;48.83;26.40;;;;;;;5.16;100.00;96406.09;5070784;28;20196;-69
2020/12/16 02:22:28;;;;;;;49.80;26.17;;;;;;;5.13;100.00;96409.13;5070917;28;20260;-69
2020/12/16 02:25:00;;;;;;;54.57;28.30;;;;;;;5.13;100.00;96410.94;5070962;28;20192;-70
2020/12/16 02:27:28;;;;;;;52.43;28.40;;;;;;;5.13;100.00;96410.94;5070685;28;20224;-70
2020/12/16 02:29:56;;;;;;;55.83;27.40;;;;;;;5.17;100.00;96417.19;5070694;28;20271;-68
2020/12/16 02:32:25;;;;;;;50.83;26.40;;;;;;;5.16;100.00;96408.66;5070673;28;20216;-68
2020/12/16 02:34:52;;;;;;;48.27;26.40;;;;;;;5.14;100.00;96408.13;5070593;28;20199;-69
2020/12/16 02:37:19;;;;;;;49.37;26.73;;;;;;;5.15;100.00;96409.69;5070545;28;20202;-69
2020/12/16 02:39:46;;;;;;;52.67;26.93;;;;;;;5.06;100.00;96411.09;5070391;28;20302;-69
2020/12/16 02:42:16;;;;;;;57.73;30.07;;;;;;;5.03;100.00;96413.38;5070733;28;20228;-69
2020/12/16 02:44:43;;;;;;;56.70;28.50;;;;;;;4.99;100.00;96410.47;5070951;28;20260;-69
2020/12/16 02:47:10;;;;;;;54.27;27.17;;;;;;;5.06;100.00;96411.09;5070392;28;20227;-69
2020/12/16 02:49:37;;;;;;;51.23;24.93;;;;;;;5.03;100.00;96414.13;5070448;28;20190;-69
2020/12/16 02:52:04;;;;;;;46.57;25.60;;;;;;;4.92;100.00;96409.88;5070372;28;20258;-69
2020/12/16 02:54:30;;;;;;;49.00;25.33;;;;;;;4.95;100.00;96414.53;5070356;28;20192;-68
2020/12/16 02:56:57;;;;;;;51.90;26.30;;;;;;;4.95;100.00;96413.75;5070157;28;20281;-69
2020/12/16 02:59:26;;;;;;;50.43;24.77;;;;;;;5.04;100.00;96418.28;5070465;28;20211;-68
2020/12/16 03:01:55;;;;;;;54.30;25.17;;;;;;;4.91;100.00;96410.88;5070386;28;20682;-68
2020/12/16 03:04:22;;;;;;;53.97;26.30;;;;;;;4.92;100.00;96414.22;5070112;28;20196;-70
2020/12/16 03:06:50;;;;;;;55.03;25.17;;;;;;;4.94;100.00;96420.69;5070169;28;20302;-68
2020/12/16 03:09:18;;;;;;;57.83;26.20;;;;;;;4.87;100.00;96417.50;5070200;28;20250;-68
2020/12/16 03:11:45;;;;;;;59.03;27.57;;;;;;;4.91;100.00;96418.59;5070191;28;20193;-69
2020/12/16 03:14:12;;;;;;;56.50;26.13;;;;;;;4.92;100.00;96417.59;5069938;28;20196;-68
2020/12/16 03:16:39;;;;;;;55.70;25.97;;;;;;;4.95;100.00;96424.03;5070153;28;20678;-68
2020/12/16 03:19:06;;;;;;;50.40;25.37;;;;;;;4.93;100.00;96421.69;5069944;28;20206;-67
2020/12/16 03:21:33;;;;;;;51.80;25.43;;;;;;;4.97;100.00;96425.38;5070214;28;20637;-67
2020/12/16 03:23:59;;;;;;;55.83;27.30;;;;;;;4.90;100.00;96435.06;5069918;28;20181;-68
2020/12/16 03:26:26;;;;;;;59.90;25.60;;;;;;;4.89;100.00;96425.75;5069874;28;20267;-68
2020/12/16 03:28:53;;;;;;;57.00;25.83;;;;;;;4.89;100.00;96438.63;5069950;28;20192;-69
2020/12/16 03:31:20;;;;;;;60.60;25.87;;;;;;;4.88;100.00;96434.50;5070245;28;20679;-69
2020/12/16 03:33:48;;;;;;;54.20;24.87;;;;;;;4.88;100.00;96438.91;5069814;28;20208;-69
2020/12/16 03:36:16;;;;;;;66.17;26.97;;;;;;;4.89;100.00;96430.13;5070020;28;20245;-68
2020/12/16 03:38:44;;;;;;;60.50;25.67;;;;;;;4.88;100.00;96428.59;5069925;28;20195;-69
2020/12/16 03:41:11;;;;;;;63.67;26.63;;;;;;;4.89;100.00;96428.34;5069733;28;20259;-68
2020/12/16 03:43:38;;;;;;;63.50;26.73;;;;;;;4.93;100.00;96426.09;5069880;28;20202;-70
2020/12/16 03:46:08;;;;;;;62.73;26.27;;;;;;;4.94;100.00;96425.84;5069493;28;20231;-69
2020/12/16 03:48:35;;;;;;;61.20;25.77;;;;;;;4.93;100.00;96424.28;5069816;28;20193;-68
2020/12/16 03:51:05;;;;;;;62.20;26.53;;;;;;;4.96;100.00;96431.56;5069718;28;20737;-70
2020/12/16 03:53:32;;;;;;;68.43;27.87;;;;;;;4.91;100.00;96436.63;5069730;28;20671;-67
2020/12/16 03:56:04;;;;;;;70.23;30.50;;;;;;;4.84;100.00;96432.63;5070109;28;20197;-68
2020/12/16 03:58:30;;;;;;;88.83;34.03;;;;;;;4.91;100.00;96435.84;5069660;28;20193;-69
2020/12/16 04:00:57;;;;;;;70.30;28.17;;;;;;;4.86;100.00;96436.53;5069779;28;20682;-68
2020/12/16 04:03:24;;;;;;;79.23;30.80;;;;;;;4.95;100.00;96440.28;5069775;28;20199;-65
2020/12/16 04:05:51;;;;;;;99.63;30.50;;;;;;;4.87;100.00;96437.31;5069486;28;20228;-68
2020/12/16 04:08:18;;;;;;;82.67;27.43;;;;;;;4.68;100.00;96442.66;5069580;28;20188;-67
2020/12/16 04:10:45;;;;;;;68.23;22.83;;;;;;;4.67;100.00;96448.06;5069690;28;20699;-69
2020/12/16 04:13:15;;;;;;;70.33;22.20;;;;;;;4.64;100.00;96451.09;5069720;28;20197;-68
2020/12/16 04:15:42;;;;;;;75.17;22.00;;;;;;;4.65;100.00;96458.59;5069776;28;20196;-69
2020/12/16 04:18:09;;;;;;;63.07;19.80;;;;;;;4.58;100.00;96452.78;5069477;28;20193;-67
2020/12/16 04:20:36;;;;;;;70.87;20.43;;;;;;;4.55;100.00;96455.84;5069671;28;20196;-68
2020/12/16 04:23:04;;;;;;;68.57;20.37;;;;;;;4.55;100.00;96449.91;5069466;28;20197;-69
2020/12/16 04:25:32;;;;;;;69.60;20.57;;;;;;;4.52;100.00;96460.69;5069511;28;20284;-69
2020/12/16 04:27:59;;;;;;;71.97;20.40;;;;;;;4.45;100.00;96455.66;5072964;28;20286;-68
2020/12/16 04:30:26;;;;;;;76.60;20.00;;;;;;;4.38;100.00;96464.53;5072927;28;20204;-68
2020/12/16 04:32:56;;;;;;;63.33;18.97;;;;;;;4.40;100.00;96457.38;5072748;28;20223;-68
2020/12/16 04:35:24;;;;;;;81.27;20.20;;;;;;;4.31;100.00;96467.25;5073122;28;20243;-67
2020/12/16 04:37:51;;;;;;;83.10;19.27;;;;;;;4.31;100.00;96470.59;5072856;28;20744;-67
2020/12/16 04:40:18;;;;;;;109.23;29.87;;;;;;;4.18;100.00;96470.09;5072545;28;20189;-62
2020/12/16 04:43:00;;;;;;;104.40;28.67;;;;;;;4.26;100.00;96473.09;5072905;28;20290;-68
2020/12/16 04:45:27;;;;;;;89.67;26.17;;;;;;;4.22;100.00;96474.56;5072632;28;20566;-68
2020/12/16 04:47:56;;;;;;;117.40;28.57;;;;;;;4.10;100.00;96484.06;5072639;28;20189;-68
2020/12/16 04:50:23;;;;;;;110.80;24.87;;;;;;;4.09;100.00;96481.72;5072517;28;20202;-69
2020/12/16 04:52:50;;;;;;;84.30;21.83;;;;;;;4.12;100.00;96487.22;5072460;28;20212;-69
2020/12/16 04:55:18;;;;;;;80.67;20.37;;;;;;;4.08;100.00;96488.69;5072522;28;20655;-69
2020/12/16 04:57:52;;;;;;;64.63;19.77;;;;;;;4.24;100.00;96494.88;5072577;28;20275;-68
2020/12/16 05:00:21;;;;;;;68.53;19.70;;;;;;;4.21;100.00;96497.91;5073327;28;20246;-68
2020/12/16 05:02:52;;;;;;;69.67;19.00;;;;;;;4.14;100.00;96500.63;5072331;28;20207;-68
2020/12/16 05:05:19;;;;;;;96.00;20.27;;;;;;;4.10;100.00;96502.09;5072628;28;20192;-68
2020/12/16 05:07:48;;;;;;;121.13;20.90;;;;;;;4.13;100.00;96500.88;5072453;28;20228;-68
2020/12/16 05:10:17;;;;;;;110.03;20.37;;;;;;;4.10;100.00;96494.38;5072403;28;20229;-68
2020/12/16 05:12:44;;;;;;;98.83;18.80;;;;;;;4.07;100.00;96499.97;5072561;28;20192;-68
2020/12/16 05:15:29;;;;;;;77.47;19.27;;;;;;;4.02;100.00;96504.22;5072151;28;20192;-67
2020/12/16 05:18:15;;;;;;;90.00;20.83;;;;;;;4.02;100.00;96499.88;5072169;28;20201;-68
2020/12/16 05:20:44;;;;;;;65.23;18.70;;;;;;;4.08;100.00;96504.13;5072038;28;20200;-68
2020/12/16 05:23:11;;;;;;;81.13;19.63;;;;;;;4.18;100.00;96512.03;5072015;28;20189;-68
2020/12/16 05:25:39;;;;;;;71.00;18.37;;;;;;;4.22;100.00;96513.13;5071915;28;20671;-68
2020/12/16 05:28:06;;;;;;;64.13;19.50;;;;;;;4.18;100.00;96516.41;5071883;28;20216;-68
2020/12/16 05:30:35;;;;;;;66.70;20.07;;;;;;;4.22;100.00;96522.66;5072015;28;20204;-67
2020/12/16 05:33:04;;;;;;;97.57;23.67;;;;;;;4.12;100.00;96523.22;5071719;28;20273;-65
2020/12/16 05:35:34;;;;;;;64.87;20.67;;;;;;;4.20;100.00;96525.44;5071884;28;20652;-69
2020/12/16 05:38:06;;;;;;;63.43;20.87;;;;;;;4.24;100.00;96530.91;5070911;28;20200;-68
2020/12/16 05:40:35;;;;;;;66.90;19.47;;;;;;;4.18;100.00;96526.69;5071528;28;20275;-68
2020/12/16 05:43:02;;;;;;;68.53;22.77;;;;;;;4.24;100.00;96526.53;5071955;28;20228;-69
2020/12/16 05:45:30;;;;;;;90.63;31.53;;;;;;;4.29;100.00;96531.00;5071428;28;20196;-68
2020/12/16 05:48:01;;;;;;;58.03;24.57;;;;;;;4.28;100.00;96534.59;5071917;28;20271;-68
2020/12/16 05:50:36;;;;;;;71.60;22.57;;;;;;;4.33;100.00;96535.47;5071697;28;20210;-69
2020/12/16 05:53:14;;;;;;;63.30;21.43;;;;;;;4.40;100.00;96539.69;5071592;28;20193;-68
2020/12/16 05:55:41;;;;;;;59.77;22.13;;;;;;;4.31;100.00;96537.50;5071410;28;20279;-68
2020/12/16 05:58:10;;;;;;;66.37;23.40;;;;;;;4.28;100.00;96537.94;5071329;28;20288;-68
2020/12/16 06:00:48;;;;;;;72.73;26.67;;;;;;;4.34;100.00;96547.31;5071334;28;20203;-68
2020/12/16 06:03:24;;;;;;;73.97;29.33;;;;;;;4.27;100.00;96541.53;5071364;28;20697;-69
2020/12/16 06:05:53;;;;;;;75.43;32.57;;;;;;;4.28;100.00;96548.22;5071265;28;20641;-69
2020/12/16 06:08:21;;;;;;;70.13;32.47;;;;;;;4.35;100.00;96548.09;5071043;28;20745;-69
2020/12/16 06:10:49;;;;;;;105.13;41.77;;;;;;;4.34;100.00;96554.25;5070957;28;20770;-70
2020/12/16 06:13:17;;;;;;;104.57;48.43;;;;;;;4.36;100.00;96554.03;5071065;28;20254;-70
2020/12/16 06:15:51;;;;;;;160.50;76.83;;;;;;;4.38;100.00;96555.38;5070837;28;20222;-70
2020/12/16 06:18:19;;;;;;;285.50;157.23;;;;;;;4.41;100.00;96556.72;5071265;28;20200;-68
2020/12/16 06:20:47;;;;;;;92.53;50.43;;;;;;;4.38;100.00;96557.19;5070981;28;20288;-69
2020/12/16 06:23:36;;;;;;;75.07;37.80;;;;;;;4.45;100.00;96562.97;5070929;28;20193;-69
2020/12/16 06:26:05;;;;;;;66.00;34.37;;;;;;;4.47;100.00;96572.03;5067818;28;20227;-69
2020/12/16 06:28:32;;;;;;;55.10;27.23;;;;;;;4.47;100.00;96568.69;5070670;28;20192;-69
2020/12/16 06:31:06;;;;;;;56.50;26.13;;;;;;;4.48;100.00;96568.47;5071011;28;20287;-69
2020/12/16 06:33:45;;;;;;;74.43;31.80;;;;;;;4.53;100.00;96576.28;5070643;28;20211;-68
2020/12/16 06:36:13;;;;;;;62.20;31.10;;;;;;;4.50;100.00;96569.00;5070591;28;20760;-70
2020/12/16 06:38:43;;;;;;;81.53;46.50;;;;;;;4.41;100.00;96575.50;5070399;28;20203;-69
2020/12/16 06:41:19;;;;;;;59.17;30.70;;;;;;;4.41;100.00;96570.38;5070383;28;20243;-68
2020/12/16 06:43:47;;;;;;;48.50;23.97;;;;;;;4.39;100.00;96574.94;5070256;28;20283;-69
2020/12/16 06:46:48;;;;;;;68.10;39.03;;;;;;;4.48;100.00;96571.03;5070418;28;20232;-70
2020/12/16 06:49:41;;;;;;;70.83;38.23;;;;;;;4.58;100.00;96573.00;5070122;28;20283;-69
2020/12/16 06:52:13;;;;;;;134.47;64.93;;;;;;;4.48;100.00;96570.25;5070406;28;20204;-70
2020/12/16 06:54:54;;;;;;;68.57;36.97;;;;;;;4.50;100.00;96575.94;5070383;28;20191;-69
2020/12/16 06:57:24;;;;;;;113.10;54.90;;;;;;;4.54;100.00;96577.03;5070521;28;20196;-70
2020/12/16 06:59:55;;;;;;;77.63;38.97;;;;;;;4.59;100.00;96579.69;5070202;28;20198;-70
2020/12/16 07:02:31;;;;;;;157.03;66.73;;;;;;;4.52;100.00;96573.91;5070143;28;20203;-70
2020/12/16 07:04:59;;;;;;;57.60;32.67;;;;;;;4.56;100.00;96575.03;5070336;28;20615;-68
2020/12/16 07:07:56;;;;;;;59.50;34.27;;;;;;;4.56;100.00;96575.81;5069986;28;20235;-70
2020/12/16 07:10:44;;;;;;;70.80;31.07;;;;;;;4.60;100.00;96570.97;5046889;28;20204;-69
2020/12/16 07:13:13;;;;;;;116.43;45.97;;;;;;;4.48;100.00;96578.75;5069977;28;20200;-69
2020/12/16 07:15:44;;;;;;;125.70;48.93;;;;;;;4.58;100.00;96583.31;5070268;28;20582;-70
2020/12/16 07:18:55;;;;;;;80.43;33.37;;;;;;;4.69;100.00;96579.91;5070174;28;20200;-70
2020/12/16 07:21:26;;;;;;;105.53;47.10;;;;;;;4.67;100.00;96584.50;5065518;28;20264;-69
2020/12/16 07:23:59;;;;;;;124.57;57.83;;;;;;;4.64;100.00;96578.00;5070209;28;20200;-70
2020/12/16 07:26:28;;;;;;;57.30;30.90;;;;;;;4.67;100.00;96579.38;5069944;28;20242;-69
2020/12/16 07:28:56;;;;;;;51.57;29.37;;;;;;;4.76;100.00;96580.56;5069973;28;20196;-68
2020/12/16 07:31:24;;;;;;;56.67;29.23;;;;;;;4.74;100.00;96582.56;5069941;28;20576;-70
2020/12/16 07:33:51;;;;;;;72.77;33.57;;;;;;;4.68;100.00;96580.94;5069829;28;20221;-70
2020/12/16 07:36:19;;;;;;;48.50;21.97;;;;;;;4.65;100.00;96589.09;5069819;28;20200;-66
2020/12/16 07:38:51;;;;;;;173.03;62.17;;;;;;;4.72;100.00;96587.19;5070172;28;20667;-69
2020/12/16 07:41:26;;;;;;;429.10;136.47;;;;;;;4.70;100.00;96584.03;5070016;28;20360;-71
2020/12/16 07:43:54;;;;;;;86.87;32.97;;;;;;;4.69;100.00;96585.84;5069842;28;20191;-70
2020/12/16 07:46:22;;;;;;;49.60;23.90;;;;;;;4.80;100.00;96589.38;5069701;28;20259;-68
2020/12/16 07:48:49;;;;;;;47.33;24.73;;;;;;;4.91;100.00;96591.16;5069724;28;20780;-70
2020/12/16 07:51:20;;;;;;;48.23;21.60;;;;;;;4.97;100.00;96597.97;5069928;28;20224;-69
2020/12/16 07:53:49;;;;;;;46.00;21.27;;;;;;;4.98;100.00;96596.16;5069868;28;20280;-69
2020/12/16 07:56:18;;;;;;;36.50;20.93;;;;;;;4.94;100.00;96592.47;5069657;28;20197;-69
2020/12/16 07:58:46;;;;;;;59.87;34.90;;;;;;;4.88;100.00;96593.41;5069795;28;20201;-70
2020/12/16 08:01:14;;;;;;;43.90;22.47;;;;;;;4.80;100.00;96596.31;5070974;28;20279;-70
2020/12/16 08:03:42;;;;;;;38.13;17.47;;;;;;;4.85;100.00;96599.00;5073533;28;20337;-69
2020/12/16 08:06:10;;;;;;;38.83;20.07;;;;;;;4.88;100.00;96595.97;5073564;28;20267;-70
2020/12/16 08:08:45;;;;;;;36.70;20.50;;;;;;;4.94;100.00;96602.75;5073437;28;20654;-70
2020/12/16 08:11:14;;;;;;;29.00;14.80;;;;;;;4.93;100.00;96598.66;5073714;28;20627;-71
2020/12/16 08:13:41;;;;;;;34.50;16.77;;;;;;;4.90;100.00;96597.31;5073308;28;20203;-70
2020/12/16 08:16:09;;;;;;;43.27;20.73;;;;;;;4.77;100.00;96602.72;5073185;28;20192;-70
2020/12/16 08:18:38;;;;;;;46.13;23.37;;;;;;;4.86;100.00;96596.19;5073225;28;20701;-70
2020/12/16 08:21:16;;;;;;;84.73;30.07;;;;;;;4.95;100.00;96604.34;5073176;28;20196;-69
2020/12/16 08:23:42;;;;;;;440.27;123.23;;;;;;;4.96;100.00;96606.69;5073431;28;20721;-70
2020/12/16 08:26:09;;;;;;;366.00;95.07;;;;;;;5.04;100.00;96603.72;5073121;28;20315;-71
2020/12/16 08:28:36;;;;;;;502.27;150.53;;;;;;;5.14;100.00;96603.91;5072897;28;20236;-70
2020/12/16 08:31:03;;;;;;;252.50;73.20;;;;;;;5.19;100.00;96601.44;5073257;28;20246;-70
2020/12/16 08:33:32;;;;;;;51.87;25.37;;;;;;;5.25;100.00;96604.09;5073082;28;20214;-69
2020/12/16 08:36:02;;;;;;;79.73;31.53;;;;;;;5.32;100.00;96599.59;5073018;28;20329;-69
2020/12/16 08:38:31;;;;;;;475.60;150.30;;;;;;;5.26;100.00;96600.50;5072805;28;20252;-71
2020/12/16 08:41:00;;;;;;;70.33;30.37;;;;;;;5.34;100.00;96594.97;5072690;28;20224;-69
2020/12/16 08:43:29;;;;;;;225.73;64.23;;;;;;;5.32;100.00;96602.16;5072995;28;20257;-70
2020/12/16 08:46:02;;;;;;;110.33;41.90;;;;;;;5.31;100.00;96603.16;5072698;28;20243;-71
2020/12/16 08:48:29;;;;;;;134.00;47.43;;;;;;;5.33;100.00;96596.75;5072597;28;20602;-71
2020/12/16 08:51:07;;;;;;;354.10;111.47;;;;;;;5.41;100.00;96593.03;5072644;28;20242;-69
2020/12/16 08:53:49;;;;;;;71.07;34.43;;;;;;;5.49;100.00;96595.22;5072755;28;20634;-70
2020/12/16 08:56:39;;;;;;;189.57;63.70;;;;;;;5.37;100.00;96591.94;5072568;28;20620;-71
2020/12/16 08:59:13;;;;;;;90.83;36.73;;;;;;;5.26;100.00;96590.19;5069862;28;20201;-71
2020/12/16 09:01:42;;;;;;;118.87;45.43;;;;;;;5.25;100.00;96586.84;5072543;28;20287;-69
2020/12/16 09:04:10;;;;;;;41.63;21.80;;;;;;;5.27;100.00;96587.41;5072519;28;20193;-70
2020/12/16 09:06:38;;;;;;;64.97;29.97;;;;;;;5.31;100.00;96585.91;5072215;28;20232;-69
2020/12/16 09:09:15;;;;;;;42.90;22.27;;;;;;;5.27;100.00;96582.25;5072228;28;20284;-69
2020/12/16 09:11:48;;;;;;;108.83;48.17;;;;;;;5.39;100.00;96582.94;5072021;28;20724;-71
2020/12/16 09:14:15;;;;;;;107.53;45.87;;;;;;;5.30;100.00;96580.97;5072285;28;20326;-71
2020/12/16 09:16:42;;;;;;;90.77;39.17;;;;;;;5.30;100.00;96578.41;5072383;28;20188;-71
2020/12/16 09:19:16;;;;;;;113.73;47.20;;;;;;;5.28;100.00;96583.03;5072130;28;20198;-71
2020/12/16 09:21:44;;;;;;;91.07;41.13;;;;;;;5.30;100.00;96575.84;5072349;28;20205;-71
2020/12/16 09:24:11;;;;;;;45.00;24.57;;;;;;;5.38;100.00;96571.06;5071963;28;20207;-69
2020/12/16 09:26:43;;;;;;;36.87;20.87;;;;;;;5.38;100.00;96572.88;5071810;28;20227;-70
2020/12/16 09:29:21;;;;;;;79.37;41.33;;;;;;;5.36;100.00;96567.19;5072089;28;20757;-70
2020/12/16 09:31:49;;;;;;;39.00;25.90;;;;;;;5.33;100.00;96562.50;5071753;28;20192;-70
2020/12/16 09:34:16;;;;;;;37.80;22.20;;;;;;;5.19;100.00;96560.19;5071757;28;20288;-71
2020/12/16 09:36:45;;;;;;;101.03;44.60;;;;;;;5.32;100.00;96566.09;5071784;28;20682;-71
2020/12/16 09:39:12;;;;;;;56.70;29.63;;;;;;;5.33;100.00;96567.66;5072217;28;20713;-70
2020/12/16 09:41:43;;;;;;;58.40;31.37;;;;;;;5.34;100.00;96564.03;5071604;28;20325;-69
2020/12/16 09:44:26;;;;;;;62.47;33.20;;;;;;;5.39;100.00;96564.91;5071964;28;20200;-71
2020/12/16 09:46:53;;;;;;;48.23;24.50;;;;;;;5.44;100.00;96561.63;5070366;28;20230;-71
2020/12/16 09:49:20;;;;;;;113.97;49.70;;;;;;;5.51;100.00;96551.94;5071361;28;20674;-70
2020/12/16 09:51:48;;;;;;;71.30;35.57;;;;;;;5.48;100.00;96552.44;5071784;28;20254;-70
2020/12/16 09:54:28;;;;;;;84.83;42.60;;;;;;;5.52;100.00;96558.69;5071572;28;20206;-70
2020/12/16 09:57:06;;;;;;;52.07;29.37;;;;;;;5.65;100.00;96558.34;5071386;28;20237;-69
2020/12/16 09:59:33;;;;;;;58.23;31.70;;;;;;;5.59;100.00;96562.66;5071340;28;20716;-71
2020/12/16 10:02:00;;;;;;;70.57;35.60;;;;;;;5.71;100.00;96557.41;5071209;28;20279;-68
2020/12/16 10:04:27;;;;;;;35.37;19.70;;;;;;;5.75;99.04;96555.13;5071323;28;20707;-71
2020/12/16 10:06:55;;;;;;;33.37;20.57;;;;;;;5.78;99.25;96552.09;5071494;28;20312;-69
2020/12/16 10:09:21;;;;;;;43.27;23.10;;;;;;;5.62;99.07;96554.47;5071366;28;20196;-70
2020/12/16 10:11:49;;;;;;;23.47;16.33;;;;;;;5.59;99.01;96554.91;5071010;28;20228;-70
2020/12/16 10:14:17;;;;;;;52.60;26.17;;;;;;;5.66;98.24;96554.75;5071046;28;20277;-70
2020/12/16 10:16:46;;;;;;;39.70;22.27;;;;;;;5.69;99.81;96543.97;5070896;28;20582;-71
2020/12/16 10:19:13;;;;;;;29.70;17.50;;;;;;;5.58;100.00;96543.03;5070879;28;20896;-71
2020/12/16 10:21:41;;;;;;;41.37;22.37;;;;;;;5.62;100.00;96546.72;5070850;28;20578;-71
2020/12/16 10:24:09;;;;;;;85.00;38.67;;;;;;;5.67;99.93;96540.84;5070231;28;20690;-72
2020/12/16 10:26:36;;;;;;;41.87;21.47;;;;;;;5.66;99.86;96541.88;5070839;28;20230;-67
2020/12/16 10:29:03;;;;;;;31.23;18.83;;;;;;;5.69;99.71;96538.81;5070678;28;20234;-70
2020/12/16 10:31:30;;;;;;;43.40;22.87;;;;;;;5.69;99.81;96538.81;5070772;28;20283;-70
2020/12/16 10:33:57;;;;;;;24.27;16.10;;;;;;;5.75;99.07;96532.72;5070632;28;20343;-71
2020/12/16 10:36:23;;;;;;;20.67;15.07;;;;;;;5.78;98.09;96531.47;5070680;28;20192;-70
2020/12/16 10:38:50;;;;;;;33.43;20.03;;;;;;;5.80;98.92;96535.34;5070576;28;20622;-72
2020/12/16 10:41:18;;;;;;;20.10;14.23;;;;;;;5.82;99.56;96528.19;5070548;28;20310;-70
2020/12/16 10:43:45;;;;;;;36.03;18.90;;;;;;;5.92;98.60;96527.56;5070337;28;20286;-71
2020/12/16 10:46:12;;;;;;;52.07;30.80;;;;;;;5.82;96.94;96520.44;5070319;28;20197;-72
2020/12/16 10:48:38;;;;;;;22.80;16.23;;;;;;;5.84;97.20;96523.53;5070771;28;20239;-71
2020/12/16 10:51:05;;;;;;;23.00;16.53;;;;;;;5.74;97.19;96513.09;5070143;28;20196;-72
2020/12/16 10:53:35;;;;;;;20.87;14.27;;;;;;;5.74;97.23;96514.88;5070475;28;20285;-71
2020/12/16 10:56:03;;;;;;;35.10;20.27;;;;;;;5.69;97.67;96512.22;5070245;28;20612;-71
2020/12/16 10:58:31;;;;;;;55.83;28.37;;;;;;;5.67;98.21;96515.06;5070421;28;20192;-71
2020/12/16 11:00:58;;;;;;;47.03;25.47;;;;;;;5.68;98.08;96513.28;5070428;28;20196;-67
2020/12/16 11:03:24;;;;;;;42.13;23.30;;;;;;;5.75;98.95;96511.28;5070450;28;20267;-71
2020/12/16 11:05:51;;;;;;;42.63;24.33;;;;;;;5.83;99.58;96503.94;5070220;28;20231;-71
2020/12/16 11:08:18;;;;;;;42.90;22.50;;;;;;;5.55;100.00;96511.78;5070531;28;20309;-71
2020/12/16 11:10:50;;;;;;;31.43;18.93;;;;;;;5.66;100.00;96503.19;5070026;28;20664;-69
2020/12/16 11:13:16;;;;;;;26.73;17.63;;;;;;;5.59;100.00;96500.78;5070422;28;20699;-70
2020/12/16 11:15:44;;;;;;;53.20;24.03;;;;;;;5.58;100.00;96506.94;5070253;28;20701;-71
2020/12/16 11:18:11;;;;;;;45.17;22.77;;;;;;;5.71;100.00;96498.09;5070015;28;20192;-71
2020/12/16 11:20:38;;;;;;;31.20;18.77;;;;;;;5.72;100.00;96496.31;5070101;28;20282;-70
2020/12/16 11:23:05;;;;;;;90.70;41.43;;;;;;;5.83;100.00;96503.16;5070066;28;20196;-71
2020/12/16 11:25:32;;;;;;;58.03;30.67;;;;;;;5.78;99.17;96498.69;5069967;28;20199;-70
2020/12/16 11:27:59;;;;;;;32.53;21.87;;;;;;;5.80;100.00;96499.25;5070046;28;20327;-71